Time;durP1;ratioP1;P1;durP2;ratioP2;P2;SDS_P1;SDS_P2;PMS_P1;PMS_P2;Temp;Humidity;BMP_temperature;BMP_pressure;BME280_temperature;BME280_humidity;BME280_pressure;Samples;Min_cycle;Max_cycle;Signal;HPM_P1;HPM_P2
2022/06/17 00:01:05;;;;;;;0.63;0.60;;;;;;;23.46;34.67;101001.44;5031194;28;20490;-73
2022/06/17 00:03:32;;;;;;;2.10;0.77;;;;;;;23.38;34.54;101008.50;5031094;28;20454;-74
2022/06/17 00:06:01;;;;;;;1.08;0.77;;;;;;;23.30;34.88;101016.75;5013284;28;20469;-75
2022/06/17 00:08:42;;;;;;;1.85;0.77;;;;;;;23.17;35.20;101021.25;5030966;28;20407;-73
2022/06/17 00:11:17;;;;;;;0.60;0.60;;;;;;;22.97;35.83;101016.22;5013208;28;20450;-74
2022/06/17 00:13:43;;;;;;;0.70;0.70;;;;;;;22.62;36.63;101012.34;5031286;28;20386;-73
2022/06/17 00:16:13;;;;;;;1.80;0.60;;;;;;;22.41;37.21;101011.16;5031088;28;20392;-73
2022/06/17 00:18:40;;;;;;;0.85;0.80;;;;;;;22.38;37.85;101009.00;5030321;28;20410;-73
2022/06/17 00:21:05;;;;;;;3.60;0.80;;;;;;;22.45;37.50;101010.22;5031107;28;20387;-73
2022/06/17 00:23:30;;;;;;;3.13;0.77;;;;;;;22.49;37.18;101007.66;5031042;28;20395;-74
2022/06/17 00:25:55;;;;;;;1.10;0.70;;;;;;;22.51;37.27;101008.16;5031070;28;20387;-74
2022/06/17 00:28:23;;;;;;;1.97;0.83;;;;;;;22.54;37.21;101019.41;5030718;28;20842;-74
2022/06/17 00:30:50;;;;;;;2.28;0.93;;;;;;;22.54;37.32;101015.81;5032322;28;20407;-74
2022/06/17 00:33:17;;;;;;;1.48;0.88;;;;;;;22.54;37.40;101022.19;5034334;28;20890;-73
2022/06/17 00:35:47;;;;;;;0.70;0.70;;;;;;;22.53;37.57;101026.06;5034447;28;20467;-73
2022/06/17 00:38:15;;;;;;;1.58;0.90;;;;;;;22.40;37.41;101020.56;5016491;28;20762;-74
2022/06/17 00:40:42;;;;;;;3.90;1.00;;;;;;;22.28;37.29;101018.34;5034320;28;20392;-73
2022/06/17 00:43:19;;;;;;;1.70;0.80;;;;;;;22.13;37.62;101013.13;5034421;28;20383;-73
2022/06/17 00:45:52;;;;;;;2.42;0.88;;;;;;;22.18;37.73;101013.88;5034192;28;20486;-73
2022/06/17 00:48:25;;;;;;;3.97;1.00;;;;;;;22.32;37.31;101015.78;5019250;28;20782;-73
2022/06/17 00:51:07;;;;;;;0.93;0.90;;;;;;;22.38;37.27;101009.00;5016222;28;20423;-73
2022/06/17 00:53:40;;;;;;;3.20;1.00;;;;;;;22.39;37.35;101002.38;5033941;28;20391;-73
2022/06/17 00:56:15;;;;;;;1.55;0.80;;;;;;;22.38;37.47;101004.31;5034103;28;20478;-73
2022/06/17 00:59:16;;;;;;;3.10;0.90;;;;;;;22.32;37.89;101013.84;5033724;28;20413;-73
2022/06/17 01:01:47;;;;;;;1.10;0.87;;;;;;;22.28;37.88;101012.00;4984407;28;20815;-73
2022/06/17 01:04:31;;;;;;;1.25;0.88;;;;;;;22.27;38.03;101013.13;5015855;28;20431;-73
2022/06/17 01:07:08;;;;;;;0.70;0.70;;;;;;;22.24;38.26;101006.28;5033712;28;20476;-73
2022/06/17 01:12:25;;;;;;;1.52;0.90;;;;;;;22.26;38.40;101005.97;5033759;28;20414;-73
2022/06/17 01:14:53;;;;;;;1.80;0.80;;;;;;;22.16;38.58;101009.78;5033506;28;20387;-73
2022/06/17 01:17:20;;;;;;;1.75;1.10;;;;;;;22.07;39.04;101012.44;5034012;28;20431;-73
2022/06/17 01:19:49;;;;;;;1.20;0.60;;;;;;;21.95;39.55;101011.31;5015715;28;20497;-73
2022/06/17 01:22:26;;;;;;;2.30;0.90;;;;;;;21.86;39.86;101007.63;5033723;28;20873;-74
2022/06/17 01:25:11;;;;;;;1.77;0.88;;;;;;;21.68;40.30;101006.56;5033363;28;20743;-74
2022/06/17 01:27:40;;;;;;;3.03;1.10;;;;;;;21.66;40.47;101000.56;5033131;28;20395;-73
2022/06/17 01:30:08;;;;;;;2.95;1.00;;;;;;;21.72;40.40;101002.09;5033213;28;20411;-73
2022/06/17 01:32:38;;;;;;;2.80;1.02;;;;;;;21.77;39.97;101003.94;5033181;28;20379;-74
2022/06/17 01:35:05;;;;;;;0.88;0.88;;;;;;;21.80;39.75;100998.59;5033196;28;20398;-74
2022/06/17 01:37:31;;;;;;;1.43;1.07;;;;;;;21.80;39.46;100998.59;5033301;28;20814;-73
2022/06/17 01:39:57;;;;;;;3.20;0.90;;;;;;;21.81;39.46;101015.97;5033142;28;20439;-73
2022/06/17 01:42:24;;;;;;;3.60;0.93;;;;;;;21.78;39.55;101017.41;5032128;28;20410;-73
2022/06/17 01:44:53;;;;;;;1.23;1.13;;;;;;;21.76;39.46;101018.84;5033013;28;20387;-73
2022/06/17 01:47:23;;;;;;;1.20;1.10;;;;;;;21.73;39.47;101010.03;5031829;28;20426;-73
2022/06/17 01:49:53;;;;;;;3.33;0.97;;;;;;;21.70;39.42;101016.16;5033096;28;20487;-74
2022/06/17 01:52:27;;;;;;;1.08;0.82;;;;;;;21.64;39.51;101008.31;5015461;28;20835;-73
2022/06/17 01:54:58;;;;;;;0.95;0.85;;;;;;;21.50;39.75;101010.25;5015090;28;20402;-73
2022/06/17 01:57:28;;;;;;;1.00;0.77;;;;;;;21.47;39.80;101010.84;5032569;28;20433;-73
2022/06/17 02:00:00;;;;;;;2.70;0.68;;;;;;;21.46;39.74;100998.19;5014959;28;20449;-73
2022/06/17 02:02:27;;;;;;;1.45;0.80;;;;;;;21.46;39.82;100999.00;5032703;28;20391;-73
2022/06/17 02:04:57;;;;;;;2.33;1.20;;;;;;;21.50;39.83;101002.78;5032118;28;20419;-74
2022/06/17 02:07:34;;;;;;;1.80;0.80;;;;;;;21.50;39.63;101000.03;5032662;28;20882;-73
2022/06/17 02:10:00;;;;;;;2.67;0.75;;;;;;;21.58;39.51;100995.75;5032425;28;20755;-73
2022/06/17 02:12:27;;;;;;;1.17;0.67;;;;;;;21.60;39.61;100999.03;5032252;28;20963;-73
2022/06/17 02:14:54;;;;;;;0.60;0.60;;;;;;;21.61;39.41;100995.13;5032483;28;20391;-73
2022/06/17 02:17:21;;;;;;;4.78;0.88;;;;;;;21.55;39.45;101010.13;5032560;28;20399;-74
2022/06/17 02:19:47;;;;;;;1.13;0.68;;;;;;;21.51;39.52;101006.34;5032384;28;20874;-73
2022/06/17 02:22:19;;;;;;;0.55;0.55;;;;;;;21.50;39.41;101002.78;5014724;28;20390;-74
2022/06/17 02:24:48;;;;;;;1.02;0.85;;;;;;;21.54;39.41;101002.97;5032227;28;21031;-73
2022/06/17 02:27:14;;;;;;;2.72;1.13;;;;;;;21.52;39.58;100999.72;5032005;28;20875;-74
2022/06/17 02:29:42;;;;;;;1.55;0.70;;;;;;;21.45;39.49;100996.53;5032308;28;20391;-73
2022/06/17 02:32:08;;;;;;;2.87;0.90;;;;;;;21.44;39.63;100995.72;5032118;28;20396;-73
2022/06/17 02:34:35;;;;;;;1.20;0.80;;;;;;;21.39;39.61;101001.34;5032520;28;20452;-73
2022/06/17 02:37:06;;;;;;;2.45;0.95;;;;;;;21.30;39.94;101003.16;5032041;28;20391;-74
2022/06/17 02:39:34;;;;;;;2.70;0.73;;;;;;;21.25;40.07;101000.47;5032260;28;20407;-73
2022/06/17 02:42:00;;;;;;;0.50;0.50;;;;;;;21.17;40.38;100996.47;5030825;28;20406;-74
2022/06/17 02:44:35;;;;;;;1.20;0.60;;;;;;;21.10;40.54;100998.81;5031995;28;20396;-74
2022/06/17 02:47:01;;;;;;;2.60;0.70;;;;;;;21.16;40.62;101000.38;5031997;28;20387;-73
2022/06/17 02:49:29;;;;;;;4.95;1.05;;;;;;;21.18;40.56;100997.28;5031853;28;20399;-73
2022/06/17 02:51:57;;;;;;;1.17;0.75;;;;;;;21.16;40.57;101002.31;5030565;28;20446;-73
2022/06/17 02:54:31;;;;;;;0.93;0.68;;;;;;;21.18;40.69;101008.31;5031163;28;20399;-73
2022/06/17 02:56:57;;;;;;;3.10;0.80;;;;;;;21.13;40.75;101003.72;5031921;28;20482;-73
2022/06/17 02:59:30;;;;;;;1.40;0.90;;;;;;;21.03;40.90;101000.28;5031788;28;20465;-73
2022/06/17 03:02:00;;;;;;;3.10;0.88;;;;;;;20.97;41.06;101001.50;5013875;28;20398;-73
2022/06/17 03:04:30;;;;;;;1.40;0.70;;;;;;;20.92;41.29;100993.31;5031630;28;20394;-73
2022/06/17 03:06:56;;;;;;;1.50;0.80;;;;;;;20.88;41.26;101004.09;5031596;28;20438;-74
2022/06/17 03:09:31;;;;;;;2.03;0.70;;;;;;;20.93;41.38;101008.72;5031572;28;20435;-73
2022/06/17 03:12:02;;;;;;;1.20;1.00;;;;;;;20.95;41.34;101003.72;5017439;28;20418;-73
2022/06/17 03:14:33;;;;;;;3.07;0.87;;;;;;;20.95;41.33;101000.97;5031485;28;20399;-73
2022/06/17 03:17:02;;;;;;;1.95;0.90;;;;;;;20.99;41.33;101008.34;5031635;28;20474;-73
2022/06/17 03:19:28;;;;;;;1.30;1.07;;;;;;;20.98;41.43;101003.13;5031305;28;20495;-73
2022/06/17 03:21:54;;;;;;;4.23;1.20;;;;;;;20.95;41.35;100999.03;5031611;28;20706;-73
2022/06/17 03:24:42;;;;;;;0.82;0.68;;;;;;;20.87;41.39;100998.91;5031269;28;20798;-74
2022/06/17 03:27:14;;;;;;;3.03;1.08;;;;;;;20.84;41.43;101003.09;5031400;28;20391;-73
2022/06/17 03:29:44;;;;;;;1.00;0.90;;;;;;;20.78;41.48;100998.75;5031339;28;20427;-73
2022/06/17 03:32:17;;;;;;;2.03;1.05;;;;;;;20.77;41.54;101002.66;5031467;28;20898;-73
2022/06/17 03:34:51;;;;;;;2.92;1.10;;;;;;;20.80;41.66;101006.72;5031371;28;20414;-74
2022/06/17 03:37:28;;;;;;;3.65;1.30;;;;;;;20.77;41.61;101013.66;5031272;28;20410;-74
2022/06/17 03:40:05;;;;;;;2.17;0.90;;;;;;;20.77;41.71;101010.91;5031296;28;20418;-73
2022/06/17 03:42:35;;;;;;;2.47;1.20;;;;;;;20.78;41.70;101028.25;5031358;28;20395;-74
2022/06/17 03:45:16;;;;;;;1.60;0.80;;;;;;;20.81;41.63;101027.66;5031295;28;20866;-73
2022/06/17 03:47:50;;;;;;;5.88;1.30;;;;;;;20.80;41.78;101040.63;5031339;28;20395;-73
2022/06/17 03:50:31;;;;;;;3.42;1.27;;;;;;;20.81;41.84;101046.94;5031050;28;20411;-74
2022/06/17 03:53:04;;;;;;;1.20;1.10;;;;;;;20.83;41.83;101041.94;5030893;28;20406;-74
2022/06/17 03:55:30;;;;;;;1.70;0.95;;;;;;;20.82;41.78;101051.31;5031232;28;20398;-73
2022/06/17 03:57:58;;;;;;;0.80;0.80;;;;;;;20.82;41.91;101052.13;5031119;28;20855;-73
2022/06/17 04:00:48;;;;;;;1.53;0.97;;;;;;;20.84;41.89;101054.59;5031098;28;20478;-73
2022/06/17 04:03:17;;;;;;;4.88;1.35;;;;;;;20.84;41.99;101055.44;5031166;28;20404;-74
2022/06/17 04:05:46;;;;;;;1.00;0.82;;;;;;;20.84;42.01;101065.63;5014303;28;20906;-73
2022/06/17 04:08:12;;;;;;;2.13;1.20;;;;;;;20.83;42.28;101063.97;5017215;28;20415;-73
2022/06/17 04:10:38;;;;;;;2.93;1.10;;;;;;;20.81;42.23;101068.97;5034725;28;20488;-73
2022/06/17 04:13:03;;;;;;;1.30;0.93;;;;;;;20.79;42.38;101066.50;5034795;28;20395;-74
2022/06/17 04:15:50;;;;;;;2.30;0.90;;;;;;;20.65;42.96;101062.84;5034921;28;20411;-73
2022/06/17 04:18:15;;;;;;;1.75;1.08;;;;;;;20.61;43.04;101068.13;5034752;28;20388;-73
2022/06/17 04:20:49;;;;;;;1.60;1.20;;;;;;;20.53;43.39;101077.06;5034686;28;20441;-74
2022/06/17 04:23:26;;;;;;;3.97;1.20;;;;;;;20.47;43.61;101067.25;5034347;28;20509;-73
2022/06/17 04:26:17;;;;;;;1.10;1.00;;;;;;;20.39;43.69;101067.91;5034700;28;20399;-73
2022/06/17 04:28:49;;;;;;;1.25;1.25;;;;;;;20.30;43.88;101079.84;5034324;28;20391;-73
2022/06/17 04:31:21;;;;;;;2.15;1.10;;;;;;;20.32;43.98;101066.63;5033012;28;20663;-73
2022/06/17 04:34:02;;;;;;;3.77;1.00;;;;;;;20.36;43.94;101075.91;5034225;28;20391;-73
2022/06/17 04:37:04;;;;;;;1.10;1.00;;;;;;;20.43;43.81;101079.13;5034415;28;20387;-74
2022/06/17 04:39:47;;;;;;;4.00;1.20;;;;;;;20.37;43.76;101072.88;5004114;28;20831;-74
2022/06/17 04:42:16;;;;;;;2.28;1.27;;;;;;;20.37;43.90;101074.81;5034025;28;20399;-73
2022/06/17 04:44:42;;;;;;;1.90;0.95;;;;;;;20.53;43.60;101076.25;5034206;28;20457;-73
2022/06/17 04:47:19;;;;;;;2.95;1.10;;;;;;;20.54;43.58;101078.72;5034132;28;20391;-74
2022/06/17 04:49:49;;;;;;;1.85;0.95;;;;;;;20.52;43.60;101083.69;5034074;28;20387;-73
2022/06/17 04:52:36;;;;;;;1.00;1.00;;;;;;;20.53;43.74;101088.09;5016108;28;20414;-73
2022/06/17 04:55:05;;;;;;;1.42;0.80;;;;;;;20.61;43.60;101092.13;5034015;28;20391;-73
2022/06/17 04:57:31;;;;;;;5.20;1.40;;;;;;;20.68;43.51;101098.88;5033950;28;20468;-73
2022/06/17 04:59:58;;;;;;;2.63;1.33;;;;;;;20.71;43.55;101105.75;5034018;28;20486;-73
2022/06/17 05:02:26;;;;;;;2.08;1.15;;;;;;;20.73;43.48;101100.75;5033704;28;20428;-73
2022/06/17 05:04:55;;;;;;;3.00;1.30;;;;;;;20.66;43.48;101095.63;5033777;28;20392;-73
2022/06/17 05:07:21;;;;;;;3.05;1.50;;;;;;;20.63;43.58;101101.72;5033658;28;20403;-73
2022/06/17 05:09:55;;;;;;;1.83;1.10;;;;;;;20.71;43.71;101101.03;5033709;28;20735;-73
2022/06/17 05:12:35;;;;;;;1.90;0.90;;;;;;;20.70;43.35;101107.69;5033783;28;20862;-73
2022/06/17 05:15:06;;;;;;;1.63;0.95;;;;;;;20.64;43.61;101106.13;5033777;28;20409;-73
2022/06/17 05:17:32;;;;;;;1.00;1.00;;;;;;;20.79;43.24;101107.00;5033225;28;20943;-73
2022/06/17 05:19:58;;;;;;;1.88;1.02;;;;;;;20.80;43.00;101106.72;5033574;28;20426;-73
2022/06/17 05:22:35;;;;;;;2.43;1.50;;;;;;;20.74;42.99;101101.59;5033716;28;20469;-73
2022/06/17 05:25:02;;;;;;;0.93;0.90;;;;;;;20.78;43.10;101110.91;5033439;28;20935;-73
2022/06/17 05:27:28;;;;;;;2.45;1.08;;;;;;;20.88;43.03;101110.75;5033409;28;20383;-74
2022/06/17 05:29:54;;;;;;;2.65;1.10;;;;;;;20.96;43.03;101115.59;5033252;28;20401;-73
2022/06/17 05:32:20;;;;;;;3.30;1.03;;;;;;;21.01;43.02;101115.53;5033269;28;20944;-74
2022/06/17 05:34:46;;;;;;;1.45;1.02;;;;;;;21.03;43.03;101127.06;5033273;28;20457;-73
2022/06/17 05:37:12;;;;;;;2.17;0.90;;;;;;;21.01;43.27;101121.81;5033384;28;20387;-73
2022/06/17 05:39:37;;;;;;;5.17;1.10;;;;;;;21.00;43.55;101120.22;5033128;28;20430;-73
2022/06/17 05:42:05;;;;;;;1.23;1.10;;;;;;;21.07;43.68;101115.16;5033203;28;20790;-73
2022/06/17 05:44:31;;;;;;;2.85;0.90;;;;;;;21.13;43.59;101118.66;5032988;28;20900;-73
2022/06/17 05:46:57;;;;;;;1.73;0.88;;;;;;;21.21;42.85;101129.81;5032790;28;20902;-73
2022/06/17 05:49:22;;;;;;;2.10;1.30;;;;;;;21.27;42.66;101133.34;5033128;28;20457;-74
2022/06/17 05:51:47;;;;;;;4.10;1.07;;;;;;;21.25;42.57;101126.47;5032972;28;20421;-73
2022/06/17 05:54:13;;;;;;;2.00;1.10;;;;;;;21.24;42.86;101122.88;5032940;28;20541;-73
2022/06/17 05:56:38;;;;;;;2.60;1.27;;;;;;;21.28;42.89;101126.69;5032899;28;20391;-73
2022/06/17 05:59:03;;;;;;;4.43;1.00;;;;;;;21.33;42.55;101121.09;5032750;28;20458;-73
2022/06/17 06:01:29;;;;;;;2.07;1.00;;;;;;;21.31;42.58;101123.31;5033083;28;20651;-73
2022/06/17 06:03:54;;;;;;;4.07;1.13;;;;;;;21.38;42.40;101123.78;5032878;28;20444;-73
2022/06/17 06:06:19;;;;;;;2.70;1.47;;;;;;;21.44;42.52;101119.00;5032543;28;20794;-74
2022/06/17 06:08:44;;;;;;;2.30;0.80;;;;;;;21.45;42.70;101117.88;5032639;28;20493;-74
2022/06/17 06:11:10;;;;;;;2.00;0.90;;;;;;;21.45;42.38;101117.88;5014891;28;21000;-73
2022/06/17 06:13:35;;;;;;;2.47;1.13;;;;;;;21.36;42.14;101123.25;5032477;28;20430;-73
2022/06/17 06:16:01;;;;;;;1.23;0.83;;;;;;;21.37;42.12;101118.56;5031301;28;20874;-73
2022/06/17 06:18:30;;;;;;;2.67;1.00;;;;;;;21.48;42.01;101120.84;5014499;28;20433;-73
2022/06/17 06:20:56;;;;;;;2.60;0.90;;;;;;;21.53;41.47;101122.72;5032411;28;20391;-73
2022/06/17 06:23:21;;;;;;;1.20;0.97;;;;;;;21.61;41.33;101113.72;5014728;28;20395;-74
2022/06/17 06:25:46;;;;;;;3.80;0.80;;;;;;;21.65;41.14;101110.06;5014598;28;20395;-74
2022/06/17 06:28:20;;;;;;;5.70;1.40;;;;;;;21.79;40.99;101126.66;5031914;28;20388;-73
2022/06/17 06:30:59;;;;;;;1.75;0.90;;;;;;;21.84;41.00;101117.44;5032202;28;20509;-73
2022/06/17 06:33:25;;;;;;;2.13;0.90;;;;;;;21.83;41.08;101119.41;5032246;28;20462;-73
2022/06/17 06:35:51;;;;;;;4.87;1.20;;;;;;;21.83;41.19;101121.34;5032163;28;20399;-73
2022/06/17 06:38:16;;;;;;;4.38;0.93;;;;;;;21.88;41.13;101121.25;5032122;28;20398;-73
2022/06/17 06:40:41;;;;;;;6.30;1.80;;;;;;;21.88;41.18;101112.97;5032077;28;20391;-73
2022/06/17 06:43:12;;;;;;;1.93;1.20;;;;;;;21.94;40.99;101111.78;5032069;28;20395;-73
2022/06/17 06:45:38;;;;;;;3.25;0.90;;;;;;;21.90;41.05;101117.09;5031992;28;20399;-73
2022/06/17 06:48:06;;;;;;;3.47;0.80;;;;;;;21.91;40.75;101123.44;5031691;28;20415;-73
2022/06/17 06:50:33;;;;;;;2.80;1.00;;;;;;;21.94;40.84;101122.81;5031907;28;20493;-73
2022/06/17 06:52:59;;;;;;;4.47;0.90;;;;;;;22.00;40.79;101119.66;5031671;28;20478;-73
2022/06/17 06:55:25;;;;;;;5.88;1.00;;;;;;;22.05;40.54;101121.50;5031793;28;20694;-73
2022/06/17 06:57:56;;;;;;;5.22;1.00;;;;;;;22.14;40.39;101119.66;5031821;28;20399;-73
2022/06/17 07:00:31;;;;;;;0.80;0.80;;;;;;;22.21;40.44;101120.91;5031952;28;20402;-73
2022/06/17 07:02:56;;;;;;;1.77;0.70;;;;;;;22.31;40.39;101121.81;5014034;28;20485;-74
2022/06/17 07:05:21;;;;;;;2.00;1.10;;;;;;;22.35;40.06;101120.09;5031643;28;20549;-74
2022/06/17 07:07:47;;;;;;;2.10;1.27;;;;;;;22.39;40.15;101123.88;5029935;28;20445;-73
2022/06/17 07:10:16;;;;;;;2.27;0.73;;;;;;;22.44;39.92;101124.59;5031636;28;20415;-73
2022/06/17 07:12:41;;;;;;;3.35;0.82;;;;;;;22.49;39.78;101113.41;5031787;28;20383;-73
2022/06/17 07:15:07;;;;;;;3.27;1.10;;;;;;;22.60;39.50;101123.13;5031508;28;20394;-73
2022/06/17 07:17:33;;;;;;;6.80;1.33;;;;;;;22.64;39.26;101126.09;5013160;28;20395;-73
2022/06/17 07:19:58;;;;;;;3.35;0.93;;;;;;;22.72;39.27;101125.41;5031586;28;20900;-73
2022/06/17 07:22:24;;;;;;;2.47;0.80;;;;;;;22.72;39.04;101128.97;5031421;28;20470;-73
2022/06/17 07:24:49;;;;;;;3.70;0.70;;;;;;;22.75;38.93;101138.63;5031102;28;20892;-73
2022/06/17 07:27:15;;;;;;;1.20;1.10;;;;;;;22.73;39.05;101133.38;5031486;28;20391;-73
2022/06/17 07:29:40;;;;;;;1.52;1.00;;;;;;;22.83;39.15;101134.28;5031350;28;20802;-73
2022/06/17 07:32:06;;;;;;;5.23;1.37;;;;;;;22.89;39.16;101142.16;5031458;28;20450;-74
2022/06/17 07:34:32;;;;;;;3.53;0.90;;;;;;;22.96;39.07;101131.50;5031410;28;20486;-73
2022/06/17 07:39:57;;;;;;;0.80;0.80;;;;;;;23.09;38.98;101127.03;5031462;28;20419;-73
2022/06/17 07:42:37;;;;;;;1.33;0.98;;;;;;;23.17;38.91;101129.91;5035093;28;20395;-73
2022/06/17 07:45:15;;;;;;;2.10;0.80;;;;;;;23.22;38.80;101126.19;5017449;28;20399;-73
2022/06/17 07:47:42;;;;;;;2.20;0.90;;;;;;;23.30;38.93;101130.16;5035105;28;20466;-73
2022/06/17 07:50:13;;;;;;;1.88;0.80;;;;;;;23.37;38.60;101131.34;5035131;28;20402;-73
2022/06/17 07:52:38;;;;;;;1.90;1.25;;;;;;;23.40;38.57;101127.13;5017375;28;20755;-73
2022/06/17 07:55:05;;;;;;;1.50;0.87;;;;;;;23.47;38.95;101122.84;5035143;28;20394;-73
2022/06/17 07:57:30;;;;;;;3.28;1.05;;;;;;;23.56;38.58;101122.88;5035122;28;20854;-73
2022/06/17 07:59:56;;;;;;;5.10;1.23;;;;;;;23.64;38.71;101122.97;5017171;28;20517;-73
2022/06/17 08:02:21;;;;;;;1.83;1.10;;;;;;;23.72;38.41;101119.41;5035029;28;20395;-73
2022/06/17 08:04:46;;;;;;;3.43;1.10;;;;;;;23.79;38.15;101116.19;5035228;28;20391;-74
2022/06/17 08:07:12;;;;;;;7.37;1.53;;;;;;;23.85;38.27;101114.09;5034824;28;20477;-73
2022/06/17 08:09:38;;;;;;;0.73;0.70;;;;;;;23.95;38.21;101108.28;5034822;28;20938;-73
2022/06/17 08:12:08;;;;;;;2.35;0.90;;;;;;;24.07;38.36;101106.56;5034583;28;20415;-73
2022/06/17 08:14:35;;;;;;;1.45;0.90;;;;;;;24.22;37.90;101108.94;5034590;28;20863;-73
2022/06/17 08:17:00;;;;;;;1.10;1.00;;;;;;;24.30;37.86;101101.81;5017062;28;20406;-73
2022/06/17 08:19:25;;;;;;;3.53;1.08;;;;;;;24.42;37.88;101099.22;5034578;28;20387;-73
2022/06/17 08:21:51;;;;;;;1.10;1.00;;;;;;;24.58;37.59;101105.13;5034481;28;20387;-73
2022/06/17 08:24:16;;;;;;;3.70;1.10;;;;;;;24.67;37.69;101109.53;5034543;28;20781;-73
2022/06/17 08:26:41;;;;;;;3.93;1.33;;;;;;;24.64;37.38;101110.19;5034661;28;20423;-73
2022/06/17 08:29:07;;;;;;;4.50;1.43;;;;;;;24.58;37.45;101117.03;5034519;28;20456;-73
2022/06/17 08:31:32;;;;;;;1.53;0.90;;;;;;;24.59;37.36;101112.31;5034422;28;20414;-73
2022/06/17 08:33:57;;;;;;;1.70;1.10;;;;;;;24.61;37.17;101118.34;5034383;28;20908;-73
2022/06/17 08:36:26;;;;;;;5.33;1.00;;;;;;;24.63;36.92;101116.06;5034433;28;20398;-73
2022/06/17 08:38:57;;;;;;;1.90;1.10;;;;;;;24.69;37.19;101109.22;5034394;28;20406;-73
2022/06/17 08:41:24;;;;;;;2.03;1.00;;;;;;;24.81;36.38;101106.63;5034267;28;20482;-73
2022/06/17 08:44:32;;;;;;;4.60;0.95;;;;;;;24.88;36.04;101112.53;5034850;28;20441;-73
2022/06/17 08:47:16;;;;;;;2.58;1.05;;;;;;;25.01;36.16;101117.13;5034227;28;20486;-73
2022/06/17 08:50:01;;;;;;;2.87;1.37;;;;;;;25.06;36.66;101118.94;5034072;28;20395;-73
2022/06/17 08:52:38;;;;;;;1.38;0.88;;;;;;;25.19;36.63;101107.66;5033713;28;20399;-73
2022/06/17 08:55:15;;;;;;;3.10;1.20;;;;;;;25.34;36.18;101102.75;5034229;28;20402;-73
2022/06/17 08:58:05;;;;;;;3.10;0.73;;;;;;;25.47;35.87;101096.19;5034013;28;20809;-73
2022/06/17 09:00:49;;;;;;;1.63;0.83;;;;;;;25.57;35.53;101102.25;5016226;28;20403;-73
2022/06/17 09:03:39;;;;;;;2.50;0.88;;;;;;;25.64;35.04;101108.13;5033791;28;20898;-73
2022/06/17 09:06:29;;;;;;;1.77;1.00;;;;;;;25.71;34.75;101111.22;5020750;28;20426;-73
2022/06/17 09:09:13;;;;;;;2.70;0.70;;;;;;;25.82;34.83;101113.63;5033830;28;20801;-73
2022/06/17 09:11:50;;;;;;;1.90;0.70;;;;;;;25.93;34.75;101106.56;5033082;28;20854;-73
2022/06/17 09:14:37;;;;;;;2.25;0.73;;;;;;;26.04;33.70;101107.84;5033702;28;20403;-73
2022/06/17 09:17:32;;;;;;;2.42;0.90;;;;;;;26.11;33.69;101106.19;5033664;28;20426;-73
2022/06/17 09:20:02;;;;;;;1.20;0.52;;;;;;;26.16;34.44;101103.25;5033628;28;20442;-73
2022/06/17 09:22:34;;;;;;;2.65;0.90;;;;;;;26.27;34.62;101098.13;5033320;28;20391;-73
2022/06/17 09:25:07;;;;;;;1.52;0.90;;;;;;;26.45;33.69;101099.66;5033388;28;20385;-73
2022/06/17 09:27:39;;;;;;;0.77;0.77;;;;;;;26.67;33.69;101096.59;5018960;28;20387;-73
2022/06/17 09:30:18;;;;;;;1.10;0.68;;;;;;;26.80;32.65;101101.06;5033456;28;20392;-73
2022/06/17 09:32:53;;;;;;;1.30;0.70;;;;;;;26.96;32.64;101097.72;5033458;28;20874;-73
2022/06/17 09:35:26;;;;;;;1.80;0.80;;;;;;;27.11;32.55;101103.47;5033285;28;20403;-73
2022/06/17 09:37:58;;;;;;;2.50;0.70;;;;;;;27.29;32.37;101101.34;5033681;28;20391;-73
2022/06/17 09:40:40;;;;;;;2.30;1.50;;;;;;;27.47;30.85;101090.88;5033065;28;20399;-73
2022/06/17 09:43:08;;;;;;;1.40;0.60;;;;;;;27.65;30.60;101101.50;5032500;28;20758;-73
2022/06/17 09:45:39;;;;;;;1.70;0.82;;;;;;;27.74;30.66;101098.63;5033178;28;20805;-73
2022/06/17 09:48:14;;;;;;;1.98;0.90;;;;;;;28.00;31.12;101089.94;5033098;28;20449;-73
2022/06/17 09:50:45;;;;;;;1.13;0.90;;;;;;;28.29;30.86;101093.38;5015181;28;20414;-73
2022/06/17 09:53:43;;;;;;;1.90;0.70;;;;;;;28.52;30.32;101092.91;5032914;28;20483;-73
2022/06/17 09:56:17;;;;;;;2.45;0.85;;;;;;;28.79;29.82;101093.00;5032993;28;20387;-73
2022/06/17 09:59:00;;;;;;;1.95;0.75;;;;;;;29.12;29.73;101100.34;5032834;28;20449;-73
2022/06/17 10:01:26;;;;;;;2.85;0.77;;;;;;;29.76;28.76;101094.59;5032894;28;20427;-73
2022/06/17 10:03:51;;;;;;;1.80;0.80;;;;;;;31.27;26.36;101099.44;5031928;28;20441;-73
2022/06/17 10:06:25;;;;;;;1.20;0.70;;;;;;;32.48;24.44;101097.66;5032546;28;20678;-73
2022/06/17 10:09:18;;;;;;;0.77;0.73;;;;;;;33.38;23.24;101104.16;5018302;28;20403;-73
2022/06/17 10:12:00;;;;;;;2.30;0.80;;;;;;;34.11;22.11;101103.34;5032297;28;20446;-73
2022/06/17 10:14:43;;;;;;;2.53;1.03;;;;;;;34.40;22.27;101107.19;5032467;28;20388;-71
2022/06/17 10:20:56;;;;;;;1.87;0.80;;;;;;;35.47;21.54;101097.34;5032618;28;20475;-71
2022/06/17 10:23:32;;;;;;;2.60;0.70;;;;;;;35.88;20.52;101093.81;5032411;28;20905;-71
2022/06/17 10:26:27;;;;;;;1.80;0.70;;;;;;;36.69;19.86;101095.00;5032232;28;20823;-71
2022/06/17 10:29:05;;;;;;;1.27;0.95;;;;;;;37.09;19.42;101100.16;5014460;28;20403;-72
2022/06/17 10:31:34;;;;;;;2.30;0.80;;;;;;;37.42;18.49;101093.13;5032257;28;20414;-71
2022/06/17 10:34:10;;;;;;;1.70;0.70;;;;;;;37.75;18.00;101098.19;5032053;28;20426;-71
2022/06/17 10:36:36;;;;;;;2.70;0.80;;;;;;;38.16;17.60;101097.50;5032294;28;20387;-71
2022/06/17 10:39:02;;;;;;;0.73;0.70;;;;;;;38.35;17.82;101103.41;5032079;28;20395;-72
2022/06/17 10:41:30;;;;;;;1.70;0.60;;;;;;;38.63;17.47;101096.66;5032067;28;20453;-72
2022/06/17 10:43:56;;;;;;;1.20;0.73;;;;;;;38.74;16.78;101096.53;5032041;28;20486;-72
2022/06/17 10:46:32;;;;;;;1.00;0.60;;;;;;;38.67;16.69;101096.63;5032078;28;20514;-71
2022/06/17 10:49:12;;;;;;;2.00;0.70;;;;;;;39.48;15.98;101084.31;5031973;28;20905;-71
2022/06/17 10:51:39;;;;;;;2.17;1.07;;;;;;;39.70;15.92;101094.13;5031760;28;20454;-71
2022/06/17 10:54:15;;;;;;;2.13;0.60;;;;;;;39.67;15.62;101086.44;5031753;28;20433;-72
2022/06/17 10:56:48;;;;;;;0.85;0.60;;;;;;;39.92;15.47;101088.91;5031973;28;20379;-71
2022/06/17 10:59:13;;;;;;;2.33;0.63;;;;;;;40.12;15.06;101091.84;5031736;28;20395;-71
2022/06/17 11:01:45;;;;;;;0.70;0.50;;;;;;;39.99;15.15;101088.81;5014222;28;20403;-72
2022/06/17 11:04:12;;;;;;;1.10;0.88;;;;;;;40.20;15.24;101084.84;5031604;28;20882;-71
2022/06/17 11:07:13;;;;;;;0.45;0.45;;;;;;;40.40;15.13;101089.34;5013780;28;20425;-72
2022/06/17 11:09:45;;;;;;;0.65;0.40;;;;;;;40.59;15.23;101086.97;5030925;28;20406;-71
2022/06/17 11:12:19;;;;;;;3.53;0.68;;;;;;;40.58;15.19;101088.19;5032000;28;20418;-72
2022/06/17 11:14:44;;;;;;;2.20;0.60;;;;;;;40.59;15.04;101087.78;5013675;28;20486;-72
2022/06/17 11:17:39;;;;;;;0.60;0.53;;;;;;;40.71;15.16;101087.13;5031544;28;20462;-72
2022/06/17 11:20:21;;;;;;;4.40;0.60;;;;;;;40.84;15.13;101084.44;5031506;28;20445;-72
2022/06/17 11:22:56;;;;;;;0.70;0.50;;;;;;;40.60;15.13;101083.72;5013886;28;20773;-72
2022/06/17 11:25:27;;;;;;;2.42;0.60;;;;;;;40.77;15.02;101078.91;5029752;28;20414;-71
2022/06/17 11:27:59;;;;;;;1.10;0.95;;;;;;;40.77;15.59;101081.75;5030156;28;20423;-71
2022/06/17 11:30:28;;;;;;;0.50;0.47;;;;;;;40.85;15.56;101077.50;5031439;28;20406;-72
2022/06/17 11:32:56;;;;;;;1.23;0.80;;;;;;;40.86;15.48;101059.22;5031388;28;20387;-72
2022/06/17 11:35:35;;;;;;;1.65;0.82;;;;;;;40.65;15.10;101051.13;5031263;28;20391;-72
2022/06/17 11:38:03;;;;;;;1.75;0.50;;;;;;;40.34;15.23;101039.91;5013566;28;20809;-72
2022/06/17 11:40:35;;;;;;;0.43;0.43;;;;;;;40.49;15.23;101046.16;5013315;28;20417;-72
2022/06/17 11:43:04;;;;;;;0.75;0.50;;;;;;;40.79;14.94;101053.69;5031112;28;20407;-72
2022/06/17 11:45:34;;;;;;;1.17;0.57;;;;;;;40.55;14.75;101035.91;5029716;28;20399;-72
2022/06/17 11:48:05;;;;;;;0.45;0.38;;;;;;;40.27;15.40;101048.59;5031331;28;20402;-71
2022/06/17 11:50:34;;;;;;;1.80;0.40;;;;;;;40.37;15.24;101029.75;5031088;28;20762;-72
2022/06/17 11:53:04;;;;;;;0.55;0.40;;;;;;;40.42;15.07;101032.06;5015950;28;20778;-72